createdAt,value
2023-05-08T00:00:13.251Z,89.60
2023-05-08T00:03:01.433Z,89.57
2023-05-08T00:05:29.457Z,89.40
2023-05-08T00:08:01.683Z,89.79
2023-05-08T00:10:30.125Z,89.58
2023-05-08T00:12:57.993Z,89.46
2023-05-08T00:15:25.904Z,89.76
2023-05-08T00:17:53.903Z,89.79
2023-05-08T00:20:21.949Z,89.70
2023-05-08T00:22:49.863Z,89.63
2023-05-08T00:25:17.888Z,90.05
2023-05-08T00:27:45.708Z,89.64
2023-05-08T00:30:14.591Z,89.69
2023-05-08T00:32:42.745Z,89.67
2023-05-08T00:35:10.899Z,89.81
2023-05-08T00:37:40.905Z,89.76
2023-05-08T00:40:10.586Z,89.48
2023-05-08T00:42:38.711Z,89.54
2023-05-08T00:45:07.511Z,89.54
2023-05-08T00:47:35.830Z,89.27
2023-05-08T00:50:05.570Z,89.33
2023-05-08T00:52:34.029Z,89.36
2023-05-08T00:55:03.200Z,89.43
2023-05-08T00:57:35.767Z,89.64
2023-05-08T01:00:05.684Z,89.14
2023-05-08T01:02:34.678Z,88.97
2023-05-08T01:05:03.748Z,89.10
2023-05-08T01:07:32.888Z,89.18
2023-05-08T01:10:00.973Z,88.90
2023-05-08T01:12:47.457Z,89.06
2023-05-08T01:15:21.611Z,89.00
2023-05-08T01:18:04.905Z,89.01
2023-05-08T01:20:38.780Z,88.99
2023-05-08T01:23:22.061Z,89.21
2023-05-08T01:26:22.690Z,89.01
2023-05-08T01:29:25.670Z,88.98
2023-05-08T01:32:12.474Z,89.05
2023-05-08T01:34:52.105Z,88.88
2023-05-08T01:37:43.412Z,88.95
2023-05-08T01:40:37.396Z,88.87
2023-05-08T01:43:19.153Z,88.79
2023-05-08T01:45:50.358Z,88.86
2023-05-08T01:48:25.847Z,88.94
2023-05-08T01:51:01.211Z,88.93
2023-05-08T01:53:33.211Z,88.91
2023-05-08T01:56:07.801Z,88.81
2023-05-08T01:58:38.562Z,88.79
2023-05-08T02:01:08.726Z,88.77
2023-05-08T02:03:39.870Z,88.84
2023-05-08T02:06:09.546Z,88.56
2023-05-08T02:08:38.051Z,88.73
2023-05-08T02:11:07.105Z,88.72
2023-05-08T02:13:37.183Z,88.56
2023-05-08T02:16:09.025Z,88.78
2023-05-08T02:18:40.054Z,88.73
2023-05-08T02:21:10.617Z,88.58
2023-05-08T02:23:38.608Z,88.48
2023-05-08T02:26:07.245Z,88.71
2023-05-08T02:28:36.794Z,88.35
2023-05-08T02:31:05.960Z,88.48
2023-05-08T02:33:37.040Z,88.61
2023-05-08T02:36:06.213Z,88.32
2023-05-08T02:38:37.795Z,88.60
2023-05-08T02:41:06.671Z,88.39
2023-05-08T02:43:35.564Z,88.50
2023-05-08T02:46:03.673Z,88.34
2023-05-08T02:48:41.102Z,88.57
2023-05-08T02:51:25.520Z,88.77
2023-05-08T02:54:09.329Z,88.58
2023-05-08T02:56:55.877Z,88.59
2023-05-08T02:59:45.587Z,88.23
2023-05-08T03:02:28.778Z,88.38
2023-05-08T03:05:04.479Z,88.39
2023-05-08T03:07:38.502Z,88.74
2023-05-08T03:10:13.529Z,88.74
2023-05-08T03:12:46.524Z,88.55
2023-05-08T03:15:35.241Z,88.23
2023-05-08T03:18:09.088Z,88.52
2023-05-08T03:20:40.252Z,88.32
2023-05-08T03:23:11.631Z,88.31
2023-05-08T03:25:43.715Z,88.38
2023-05-08T03:28:14.786Z,88.42
2023-05-08T03:30:44.163Z,88.47
2023-05-08T03:33:16.416Z,88.39
2023-05-08T03:35:46.647Z,88.44
2023-05-08T03:38:15.057Z,88.36
2023-05-08T03:40:43.250Z,88.29
2023-05-08T03:43:12.605Z,88.57
2023-05-08T03:45:41.690Z,88.44
2023-05-08T03:48:11.128Z,88.75
2023-05-08T03:50:39.070Z,88.78
2023-05-08T03:53:10.370Z,88.93
2023-05-08T03:55:39.497Z,88.59
2023-05-08T03:58:38.742Z,88.29
2023-05-08T04:01:23.659Z,88.26
2023-05-08T04:03:55.093Z,88.84
2023-05-08T04:06:48.824Z,88.25
2023-05-08T04:09:27.272Z,88.41
2023-05-08T04:12:03.997Z,88.38
2023-05-08T04:14:43.136Z,88.21
2023-05-08T04:17:15.936Z,87.92
2023-05-08T04:19:47.443Z,87.57
2023-05-08T04:22:18.157Z,87.62
2023-05-08T04:24:48.287Z,87.23
2023-05-08T04:27:17.821Z,87.17
2023-05-08T04:29:45.801Z,87.36
2023-05-08T04:32:14.655Z,87.09
2023-05-08T04:34:42.723Z,87.39
2023-05-08T04:37:29.340Z,87.02
2023-05-08T04:39:59.964Z,87.05
2023-05-08T04:42:28.386Z,87.34
2023-05-08T04:44:58.016Z,87.34
2023-05-08T04:47:26.017Z,87.24
2023-05-08T04:49:53.955Z,87.11
2023-05-08T04:52:21.972Z,86.74
2023-05-08T04:54:49.917Z,86.72
2023-05-08T04:57:17.906Z,86.91
2023-05-08T04:59:46.045Z,87.00
2023-05-08T05:02:15.455Z,86.80
2023-05-08T05:04:43.804Z,86.94
2023-05-08T05:07:12.100Z,86.56
2023-05-08T05:09:40.110Z,86.47
2023-05-08T05:12:09.036Z,86.81
2023-05-08T05:14:37.066Z,86.74
2023-05-08T05:17:05.225Z,86.67
2023-05-08T05:19:33.183Z,86.93
2023-05-08T05:22:01.346Z,86.36
2023-05-08T05:24:30.524Z,86.85
2023-05-08T05:26:58.654Z,85.93
2023-05-08T05:29:26.628Z,85.81
2023-05-08T05:31:54.764Z,85.60
2023-05-08T05:34:23.154Z,85.16
2023-05-08T05:36:51.145Z,85.30
2023-05-08T05:39:19.136Z,85.16
2023-05-08T05:41:47.179Z,85.37
2023-05-08T05:44:15.261Z,84.58
2023-05-08T05:46:44.620Z,84.92
2023-05-08T05:49:12.941Z,85.19
2023-05-08T05:51:41.140Z,85.08
2023-05-08T05:54:09.169Z,84.64
2023-05-08T05:56:37.549Z,84.30
2023-05-08T05:59:05.992Z,83.91
2023-05-08T06:01:34.093Z,84.09
2023-05-08T06:04:02.194Z,84.16
2023-05-08T06:06:30.203Z,83.81
2023-05-08T06:08:58.143Z,84.07
2023-05-08T06:11:26.262Z,84.50
2023-05-08T06:13:54.509Z,84.54
2023-05-08T06:16:23.319Z,84.46
2023-05-08T06:18:51.590Z,83.73
2023-05-08T06:21:19.525Z,83.92
2023-05-08T06:23:47.507Z,83.03
2023-05-08T06:26:15.509Z,83.45
2023-05-08T06:28:43.661Z,83.74
2023-05-08T06:31:11.803Z,82.90
2023-05-08T06:33:40.089Z,83.09
2023-05-08T06:36:08.439Z,83.16
2023-05-08T06:38:36.406Z,83.10
2023-05-08T06:41:04.280Z,82.83
2023-05-08T06:43:32.322Z,82.20
2023-05-08T06:46:00.292Z,81.84
2023-05-08T06:48:29.404Z,82.58
2023-05-08T06:50:58.811Z,82.02
2023-05-08T06:53:27.109Z,81.74
2023-05-08T06:55:55.305Z,81.52
2023-05-08T06:58:23.568Z,81.21
2023-05-08T07:00:51.955Z,80.94
2023-05-08T07:03:20.112Z,81.13
2023-05-08T07:05:48.244Z,81.57
2023-05-08T07:08:16.265Z,81.41
2023-05-08T07:10:44.338Z,81.86
2023-05-08T07:13:12.438Z,81.13
2023-05-08T07:15:40.834Z,81.38
2023-05-08T07:18:09.586Z,80.98
2023-05-08T07:20:37.873Z,81.08
2023-05-08T07:23:07.241Z,80.10
2023-05-08T07:25:35.327Z,78.70
2023-05-08T07:28:03.822Z,79.37
2023-05-08T07:30:31.895Z,79.55
2023-05-08T07:33:00.124Z,79.44
2023-05-08T07:35:29.736Z,77.91
2023-05-08T07:37:57.903Z,77.36
2023-05-08T07:40:26.077Z,76.76
2023-05-08T07:42:54.101Z,76.36
2023-05-08T07:45:22.656Z,75.48
2023-05-08T07:47:52.967Z,75.70
2023-05-08T07:50:22.238Z,75.00
2023-05-08T07:52:50.603Z,75.82
2023-05-08T07:55:19.612Z,74.66
2023-05-08T07:57:47.516Z,74.79
2023-05-08T08:00:17.230Z,74.87
2023-05-08T08:02:46.064Z,74.96
2023-05-08T08:05:14.514Z,75.73
2023-05-08T08:07:42.911Z,74.53
2023-05-08T08:10:11.201Z,74.56
2023-05-08T08:12:39.484Z,74.93
2023-05-08T08:15:08.093Z,74.72
2023-05-08T08:17:36.723Z,74.07
2023-05-08T08:20:05.174Z,74.50
2023-05-08T08:22:33.160Z,74.38
2023-05-08T08:25:01.231Z,73.99
2023-05-08T08:27:29.419Z,74.59
2023-05-08T08:30:08.628Z,73.97
2023-05-08T08:32:45.057Z,73.65
2023-05-08T08:35:13.648Z,73.19
2023-05-08T08:37:42.127Z,72.72
2023-05-08T08:40:10.451Z,72.54
2023-05-08T08:42:38.601Z,72.29
2023-05-08T08:45:07.178Z,72.22
2023-05-08T08:47:41.485Z,73.30
2023-05-08T08:50:12.832Z,71.34
2023-05-08T08:52:52.131Z,71.13
2023-05-08T08:55:23.559Z,69.86
2023-05-08T08:58:00.784Z,69.62
2023-05-08T09:00:34.152Z,70.07
2023-05-08T09:03:02.363Z,70.28
2023-05-08T09:05:31.786Z,70.38
2023-05-08T09:08:00.112Z,71.61
2023-05-08T09:10:28.458Z,71.58
2023-05-08T09:12:56.650Z,71.67
2023-05-08T09:15:25.984Z,70.27
2023-05-08T09:17:54.309Z,70.84
2023-05-08T09:20:23.325Z,70.34
2023-05-08T09:22:53.075Z,69.81
2023-05-08T09:25:21.626Z,69.53
2023-05-08T09:27:49.642Z,69.74
2023-05-08T09:30:17.971Z,68.78
2023-05-08T09:32:46.139Z,69.30
2023-05-08T09:35:14.420Z,69.09
2023-05-08T09:37:43.955Z,68.49
2023-05-08T09:40:16.315Z,69.39
2023-05-08T09:42:45.572Z,69.53
2023-05-08T09:45:31.939Z,68.37
2023-05-08T09:48:01.190Z,67.74
2023-05-08T09:50:29.746Z,67.10
2023-05-08T09:52:57.866Z,66.18
2023-05-08T09:55:25.885Z,65.21
2023-05-08T09:57:59.787Z,65.01
2023-05-08T10:00:30.643Z,65.46
2023-05-08T10:03:01.288Z,65.07
2023-05-08T10:05:35.985Z,65.50
2023-05-08T10:08:26.666Z,64.51
2023-05-08T10:10:54.637Z,65.29
2023-05-08T10:13:22.715Z,65.06
2023-05-08T10:15:55.159Z,65.15
2023-05-08T10:18:30.232Z,64.54
2023-05-08T10:21:03.184Z,64.70
2023-05-08T10:23:34.273Z,64.29
2023-05-08T10:26:11.720Z,64.43
2023-05-08T10:28:55.036Z,64.55
2023-05-08T10:31:26.213Z,64.28
2023-05-08T10:33:56.736Z,64.08
2023-05-08T10:36:27.411Z,63.94
2023-05-08T10:38:59.130Z,64.03
2023-05-08T10:41:28.044Z,64.10
2023-05-08T10:43:56.981Z,63.77
2023-05-08T10:46:54.813Z,62.47
2023-05-08T10:49:41.539Z,62.39
2023-05-08T10:52:16.934Z,61.92
2023-05-08T10:54:54.489Z,61.60
2023-05-08T10:57:22.434Z,62.84
2023-05-08T10:59:50.603Z,63.13
2023-05-08T11:02:28.749Z,62.40
2023-05-08T11:05:17.984Z,60.53
2023-05-08T11:07:55.730Z,60.44
2023-05-08T11:10:31.046Z,60.29
2023-05-08T11:13:00.923Z,60.79
2023-05-08T11:15:40.165Z,60.94
2023-05-08T11:18:11.741Z,61.68
2023-05-08T11:20:58.327Z,61.06
2023-05-08T11:23:38.577Z,60.90
2023-05-08T11:26:13.777Z,61.26
2023-05-08T11:28:57.069Z,61.22
2023-05-08T11:31:51.652Z,60.32
2023-05-08T11:34:46.215Z,58.99
2023-05-08T11:37:22.615Z,59.08
2023-05-08T11:39:50.950Z,57.89
2023-05-08T11:42:27.807Z,57.58
2023-05-08T11:45:10.842Z,58.29
2023-05-08T11:47:41.568Z,59.34
2023-05-08T11:50:11.349Z,57.69
2023-05-08T11:52:41.692Z,57.09
2023-05-08T11:55:11.996Z,56.36
2023-05-08T11:57:39.900Z,55.42
2023-05-08T12:00:10.091Z,56.56
2023-05-08T12:02:46.031Z,56.80
2023-05-08T12:05:14.165Z,56.94
2023-05-08T12:07:46.742Z,57.46
2023-05-08T12:10:16.677Z,57.37
2023-05-08T12:12:45.542Z,57.89
2023-05-08T12:15:15.472Z,57.63
2023-05-08T12:17:43.681Z,58.20
2023-05-08T12:20:17.424Z,58.26
2023-05-08T12:22:53.335Z,57.98
2023-05-08T12:25:21.645Z,58.25
2023-05-08T12:27:49.708Z,58.90
2023-05-08T12:30:18.492Z,58.00
2023-05-08T12:32:47.139Z,58.33
2023-05-08T12:35:16.505Z,58.56
2023-05-08T12:37:45.439Z,57.52
2023-05-08T12:40:29.273Z,57.06
2023-05-08T12:42:57.701Z,57.04
2023-05-08T12:45:30.964Z,56.28
2023-05-08T12:48:04.219Z,57.20
2023-05-08T12:50:43.193Z,57.14
2023-05-08T12:53:13.647Z,56.92
2023-05-08T12:55:52.964Z,57.06
2023-05-08T12:58:24.936Z,57.08
2023-05-08T13:00:54.953Z,57.37
2023-05-08T13:03:28.964Z,57.72
2023-05-08T13:05:58.697Z,57.71
2023-05-08T13:08:44.853Z,57.38
2023-05-08T13:11:12.796Z,57.26
2023-05-08T13:13:40.763Z,57.13
2023-05-08T13:16:08.894Z,56.95
2023-05-08T13:18:37.389Z,57.57
2023-05-08T13:21:05.952Z,57.09
2023-05-08T13:23:33.943Z,55.86
2023-05-08T13:26:01.856Z,55.87
2023-05-08T13:28:29.845Z,56.06
2023-05-08T13:30:57.867Z,55.81
2023-05-08T13:33:26.459Z,56.07
2023-05-08T13:35:55.361Z,55.98
2023-05-08T13:38:23.318Z,55.48
2023-05-08T13:40:52.327Z,55.52
2023-05-08T13:43:20.317Z,55.41
2023-05-08T13:45:48.253Z,55.46
2023-05-08T13:48:16.302Z,55.63
2023-05-08T13:50:44.241Z,56.18
2023-05-08T13:53:12.156Z,56.06
2023-05-08T13:55:40.384Z,56.61
2023-05-08T13:58:11.331Z,56.56
2023-05-08T14:00:39.230Z,56.84
2023-05-08T14:03:07.218Z,56.09
2023-05-08T14:05:35.432Z,56.58
2023-05-08T14:08:03.511Z,56.25
2023-05-08T14:10:31.414Z,56.35
2023-05-08T14:12:59.493Z,56.17
2023-05-08T14:15:36.519Z,56.40
2023-05-08T14:18:05.967Z,56.24
2023-05-08T14:20:34.058Z,56.08
2023-05-08T14:23:02.049Z,55.48
2023-05-08T14:25:30.762Z,55.67
2023-05-08T14:27:58.672Z,55.02
2023-05-08T14:30:26.795Z,55.04
2023-05-08T14:32:54.754Z,55.66
2023-05-08T14:35:22.817Z,55.61
2023-05-08T14:37:50.729Z,55.47
2023-05-08T14:40:18.847Z,55.46
2023-05-08T14:42:46.777Z,55.92
2023-05-08T14:45:14.983Z,56.41
2023-05-08T14:47:43.340Z,56.13
2023-05-08T14:50:11.533Z,56.21
2023-05-08T14:52:39.468Z,55.93
2023-05-08T14:55:08.311Z,55.96
2023-05-08T14:57:36.497Z,55.97
2023-05-08T15:00:06.885Z,55.40
2023-05-08T15:02:35.043Z,54.84
2023-05-08T15:05:06.144Z,54.62
2023-05-08T15:07:37.034Z,52.75
2023-05-08T15:10:06.524Z,51.60
2023-05-08T15:12:34.862Z,51.27
2023-05-08T15:15:04.493Z,51.30
2023-05-08T15:17:35.755Z,51.20
2023-05-08T15:20:05.025Z,50.85
2023-05-08T15:22:32.957Z,50.83
2023-05-08T15:25:02.587Z,51.66
2023-05-08T15:27:30.664Z,51.50
2023-05-08T15:29:58.884Z,51.46
2023-05-08T15:32:30.301Z,51.86
2023-05-08T15:34:58.185Z,51.92
2023-05-08T15:37:26.168Z,51.67
2023-05-08T15:39:54.302Z,52.00
2023-05-08T15:42:22.193Z,52.17
2023-05-08T15:47:23.007Z,52.37
2023-05-08T15:49:51.295Z,52.03
2023-05-08T15:52:19.968Z,50.82
2023-05-08T15:54:48.027Z,51.27
2023-05-08T15:57:16.226Z,51.60
2023-05-08T15:59:44.209Z,51.47
2023-05-08T16:02:12.246Z,51.49
2023-05-08T16:04:40.352Z,50.50
2023-05-08T16:07:08.438Z,50.88
2023-05-08T16:09:36.461Z,49.85
2023-05-08T16:12:04.576Z,49.72
2023-05-08T16:14:32.580Z,48.35
2023-05-08T16:17:00.505Z,47.51
2023-05-08T16:19:28.954Z,47.21
2023-05-08T16:21:56.938Z,47.28
2023-05-08T16:24:24.909Z,46.56
2023-05-08T16:26:52.837Z,45.75
2023-05-08T16:29:20.744Z,46.31
2023-05-08T16:31:48.778Z,46.67
2023-05-08T16:34:17.041Z,47.09
2023-05-08T16:36:45.891Z,46.32
2023-05-08T16:39:13.846Z,47.08
2023-05-08T16:41:41.726Z,46.02
2023-05-08T16:44:09.678Z,45.71
2023-05-08T16:46:37.607Z,46.41
2023-05-08T16:49:05.537Z,46.44
2023-05-08T16:51:33.403Z,46.07
2023-05-08T16:54:01.877Z,45.39
2023-05-08T16:56:30.895Z,45.31
2023-05-08T16:58:58.859Z,45.59
2023-05-08T17:01:32.875Z,46.57
2023-05-08T17:04:01.063Z,46.14
2023-05-08T17:06:28.991Z,46.56
2023-05-08T17:08:56.977Z,46.83
2023-05-08T17:11:24.857Z,47.22
2023-05-08T17:13:52.787Z,47.67
2023-05-08T17:16:20.803Z,48.00
2023-05-08T17:18:48.793Z,48.50
2023-05-08T17:21:16.720Z,48.62
2023-05-08T17:23:45.807Z,49.02
2023-05-08T17:26:13.821Z,49.24
2023-05-08T17:28:41.749Z,49.81
2023-05-08T17:31:09.753Z,49.85
2023-05-08T17:33:37.875Z,49.59
2023-05-08T17:36:06.100Z,49.82
2023-05-08T17:38:35.543Z,49.75
2023-05-08T17:41:03.557Z,50.09
2023-05-08T17:43:33.811Z,50.08
2023-05-08T17:46:01.971Z,50.23
2023-05-08T17:48:30.023Z,50.17
2023-05-08T17:50:59.488Z,50.30
2023-05-08T17:53:27.349Z,50.51
2023-05-08T17:55:56.038Z,50.89
2023-05-08T17:58:24.978Z,50.94
2023-05-08T18:00:54.332Z,50.82
2023-05-08T18:03:22.501Z,51.06
2023-05-08T18:05:50.606Z,51.46
2023-05-08T18:08:18.544Z,51.75
2023-05-08T18:10:46.508Z,51.91
2023-05-08T18:13:14.653Z,52.22
2023-05-08T18:15:42.905Z,52.39
2023-05-08T18:18:11.126Z,52.54
2023-05-08T18:20:39.041Z,52.63
2023-05-08T18:23:07.080Z,53.13
2023-05-08T18:25:38.120Z,53.35
2023-05-08T18:28:06.194Z,53.63
2023-05-08T18:30:36.572Z,53.72
2023-05-08T18:33:04.606Z,53.87
2023-05-08T18:35:32.596Z,54.28
2023-05-08T18:38:00.568Z,54.50
2023-05-08T18:40:28.529Z,54.92
2023-05-08T18:42:56.464Z,55.29
2023-05-08T18:45:24.383Z,55.74
2023-05-08T18:47:54.191Z,56.55
2023-05-08T18:50:22.305Z,56.74
2023-05-08T18:52:51.599Z,56.81
2023-05-08T18:55:19.560Z,56.83
2023-05-08T18:57:47.440Z,57.28
2023-05-08T19:00:16.430Z,57.31
2023-05-08T19:02:44.379Z,57.49
2023-05-08T19:05:12.402Z,58.84
2023-05-08T19:07:40.346Z,59.23
2023-05-08T19:10:09.004Z,59.81
2023-05-08T19:12:36.905Z,59.78
2023-05-08T19:15:05.407Z,60.03
2023-05-08T19:17:35.008Z,60.17
2023-05-08T19:20:04.151Z,60.16
2023-05-08T19:22:34.482Z,60.44
2023-05-08T19:25:04.139Z,61.08
2023-05-08T19:27:32.440Z,61.01
2023-05-08T19:30:00.406Z,62.29
2023-05-08T19:32:28.830Z,62.98
2023-05-08T19:34:57.624Z,63.49
2023-05-08T19:37:25.589Z,62.87
2023-05-08T19:39:55.630Z,63.60
2023-05-08T19:42:23.638Z,63.29
2023-05-08T19:44:51.851Z,63.39
2023-05-08T19:47:19.813Z,63.52
2023-05-08T19:49:47.698Z,63.45
2023-05-08T19:52:15.736Z,64.51
2023-05-08T19:54:48.412Z,64.11
2023-05-08T19:57:16.528Z,63.75
2023-05-08T19:59:44.398Z,64.01
2023-05-08T20:02:12.305Z,64.11
2023-05-08T20:04:54.488Z,64.49
2023-05-08T20:07:28.339Z,64.50
2023-05-08T20:09:57.620Z,64.93
2023-05-08T20:12:25.542Z,64.84
2023-05-08T20:14:53.541Z,65.36
2023-05-08T20:17:21.499Z,65.23
2023-05-08T20:19:49.450Z,65.58
2023-05-08T20:22:17.514Z,66.69
2023-05-08T20:24:45.497Z,66.28
2023-05-08T20:27:13.418Z,66.54
2023-05-08T20:29:41.289Z,66.57
2023-05-08T20:32:14.516Z,66.57
2023-05-08T20:34:44.246Z,67.14
2023-05-08T20:37:12.231Z,67.36
2023-05-08T20:39:40.107Z,68.31
2023-05-08T20:42:08.100Z,68.82
2023-05-08T20:44:36.022Z,68.41
2023-05-08T20:47:04.156Z,68.99
2023-05-08T20:49:32.087Z,68.52
2023-05-08T20:52:00.047Z,69.25
2023-05-08T20:54:29.549Z,69.31
2023-05-08T20:56:57.920Z,69.13
2023-05-08T20:59:25.771Z,69.37
2023-05-08T21:01:55.871Z,69.92
2023-05-08T21:04:23.891Z,70.08
2023-05-08T21:06:52.395Z,70.00
2023-05-08T21:09:20.492Z,70.24
2023-05-08T21:11:48.454Z,70.67
2023-05-08T21:14:16.489Z,70.23
2023-05-08T21:16:44.466Z,70.52
2023-05-08T21:19:17.327Z,70.40
2023-05-08T21:21:46.283Z,70.40
2023-05-08T21:24:14.270Z,70.73
2023-05-08T21:26:42.153Z,71.29
2023-05-08T21:29:11.017Z,72.46
2023-05-08T21:31:39.342Z,71.82
2023-05-08T21:34:07.609Z,71.72
2023-05-08T21:36:35.585Z,71.79
2023-05-08T21:39:04.183Z,72.40
2023-05-08T21:41:33.151Z,73.61
2023-05-08T21:44:01.163Z,72.91
2023-05-08T21:46:29.351Z,72.23
2023-05-08T21:48:57.314Z,72.28
2023-05-08T21:51:25.679Z,72.19
2023-05-08T21:53:53.601Z,72.22
2023-05-08T21:56:21.742Z,72.15
2023-05-08T21:58:50.127Z,72.27
2023-05-08T22:01:18.173Z,72.54
2023-05-08T22:03:46.291Z,72.37
2023-05-08T22:06:14.235Z,72.55
2023-05-08T22:08:42.173Z,72.62
2023-05-08T22:11:10.103Z,72.88
2023-05-08T22:13:38.065Z,72.49
2023-05-08T22:16:06.680Z,72.79
2023-05-08T22:18:34.657Z,72.78
2023-05-08T22:21:02.623Z,72.72
2023-05-08T22:23:30.584Z,73.05
2023-05-08T22:25:58.824Z,72.91
2023-05-08T22:28:27.191Z,72.92
2023-05-08T22:30:55.068Z,72.83
2023-05-08T22:33:22.992Z,73.23
2023-05-08T22:35:50.938Z,73.51
2023-05-08T22:38:18.877Z,73.48
2023-05-08T22:40:47.903Z,73.35
2023-05-08T22:43:15.877Z,73.38
2023-05-08T22:45:43.933Z,73.45
2023-05-08T22:48:12.062Z,73.33
2023-05-08T22:50:40.024Z,73.67
2023-05-08T22:53:08.425Z,73.75
2023-05-08T22:55:37.403Z,73.84
2023-05-08T22:58:05.329Z,74.10
2023-05-08T23:00:33.249Z,74.15
2023-05-08T23:03:01.225Z,74.01
2023-05-08T23:05:29.181Z,73.87
2023-05-08T23:07:57.074Z,73.81
2023-05-08T23:10:25.017Z,73.85
2023-05-08T23:12:52.967Z,73.97
2023-05-08T23:15:21.322Z,73.96
2023-05-08T23:17:49.516Z,74.21
2023-05-08T23:20:17.552Z,73.99
2023-05-08T23:22:45.505Z,73.91
2023-05-08T23:25:13.809Z,74.13
2023-05-08T23:27:41.950Z,74.35
2023-05-08T23:30:13.318Z,74.22
2023-05-08T23:32:41.637Z,74.44
2023-05-08T23:35:09.859Z,74.53
2023-05-08T23:37:37.922Z,74.76
2023-05-08T23:40:07.340Z,74.88
2023-05-08T23:42:37.330Z,75.00
2023-05-08T23:45:06.558Z,75.04
2023-05-08T23:47:34.496Z,75.29
2023-05-08T23:50:02.578Z,74.97
2023-05-08T23:52:30.461Z,75.24
2023-05-08T23:54:58.386Z,75.31
2023-05-08T23:57:26.258Z,75.51
2023-05-08T23:59:54.100Z,75.78
